Airfield :
LOGIN :

Register | Disclaimer

   EN    FR    IT 

 










Legend :    VFR   Marginal VFR   IFR   Intensive IFR   Very Intensive IFR
Visi :
Ceiling :
>= 8 km
>= 3000ft
5 to 8 km
1000 to 3000 ft
1500m to 5 km
500 to 1000 ft
800 to 1500m
200 to 500 ft
< 800m
< 200 ft
Symbols :   Thunderstorms  Fog  Heavy snow  Heavy precipitations  Wind > 20 kt
SIGMETs :     Misc.  Thunderstorms  Icing  Turbulence  Mountain Waves  Volcanic Ashes






- Airport Elevation : 459 ft
- IATA code : CER


LFRC - Cherbourg / Maupertus

CURRENT METAR :
  • 150700Z AUTO VRB02KT 9999 FEW016 BKN023 OVC180 05/04 Q1002 TEMPO SHRA BKN015CB BECMG 02015G25KT

EXPIRED METARs :
  • 150630Z AUTO 04004KT 360V070 9999 OVC019 05/04 Q1002 TEMPO SHRA BKN015CB BECMG 02015G25KT
  • 150600Z AUTO 03006KT 9000 -RA FEW014/// BKN024/// BKN031/// ///TCU 05/04 Q1002 TEMPO SHRA BKN015CB BECMG 02015G25KT
  • 150530Z AUTO 02012KT 9999 RA FEW015 BKN022 BKN034 06/04 Q1001 TEMPO BKN015CB BECMG 02015G25KT
  • 150500Z AUTO 02005KT 9999 FEW022 BKN035 BKN041 05/03 Q1001
  • 150430Z AUTO 01003KT 9999 FEW021 SCT026 BKN031 04/03 Q1001

TAF TAF LFRC
Valid from the 15 at 06:00 until the 15 at 15:00 UTC


150500Z 1506/1515 02005KT 9999 BKN025
BECMG 1506/1509 02015G25KT
TEMPO 1506/1509 5000 SHRA BKN015CB
TEMPO 1512/1515 4000 SHRA BKN015CB



MET'MAP, your aeronautical weather chart ! - Copyright ORBIFLY December 2007 - Disclaimer

ORBIFLY MET'MAP TEAM :

Programming & Development : Alexandra Zaïnal
Concept & Development : Baudouin d'Aumeries
Co-Development & Prog : Marc-Olivier Méhu
Technical & hardware support : Manuel Goepfert

Contact : metmap@orbifly.com




SOURCES & CREDITS :

   NOAA